Flight Track Log - Related Links

Times and Time Zones

All times are in EDT time to prevent confusion due to time zone crossing. See the N899PW flight status page for this flight to view local times or setup timezone preferences in your user account.

Time Position Orientation Groundspeed Altitude Reporting Facility
EDT Latitude Longitude Course Direction KTS MPH feet Rate Location/Type
Sun 07:11:39 PM 30.3475 -86.6233 328° Northwest 142 163 3,500  Level Jacksonville Center
Sun 07:12:00 PM 30.6215 -86.6336 328° Northwest  Level Estimated
Sun 07:12:15 PM 30.3658 -86.6408 321° Northwest 143 165 3,700  Level Jacksonville Center
Sun 07:13:00 PM 30.6584 -86.6607 328° Northwest  Level Estimated
Sun 07:13:16 PM 30.3942 -86.6733 315° West 146 168 4,300  Level Jacksonville Center
Sun 07:14:00 PM 30.6953 -86.6878 328° Northwest  Level Estimated
Sun 07:14:16 PM 30.4267 -86.7033 321° Northwest 144 166 4,800  Level Jacksonville Center
Sun 07:15:00 PM 30.7322 -86.7149 328° Northwest  Level Estimated
Sun 07:15:17 PM 30.4569 -86.7336 319° Northwest 142 163 5,400  Level Jacksonville Center
Sun 07:16:00 PM 30.7690 -86.7421 328° Northwest  Level Estimated
Sun 07:16:17 PM 30.4897 -86.7592 326° Northwest 144 166 5,900  Level Jacksonville Center
Sun 07:17:00 PM 30.8059 -86.7693 328° Northwest  Level Estimated
Sun 07:17:18 PM 30.5203 -86.7867 322° Northwest 135 155 6,600  Level Jacksonville Center
Sun 07:18:19 PM 30.5508 -86.8122 324° Northwest 132 152 7,100 446 Climbing Jacksonville Center
Sun 07:19:19 PM 30.5811 -86.8400 322° Northwest 140 161 7,500 347 Climbing Jacksonville Center
Sun 07:20:20 PM 30.6136 -86.8678 324° Northwest 149 171 7,800 248 Climbing Jacksonville Center
Sun 07:21:20 PM 30.6461 -86.8981 321° Northwest 153 176 8,000 99 Climbing Jacksonville Center
Sun 07:22:21 PM 30.6825 -86.9336 320° Northwest 160 184 8,000  Level Jacksonville Center
Sun 07:23:22 PM 30.7172 -86.9617 325° Northwest 167 192 8,000  Level Jacksonville Center
Sun 07:24:22 PM 30.7536 -86.9969 320° Northwest 161 185 8,000  Level Jacksonville Center
Sun 07:25:23 PM 30.7900 -87.0300 322° Northwest 161 185 8,000  Level Jacksonville Center
Sun 07:26:24 PM 30.8289 -87.0583 328° Northwest 163 188 8,000  Level Jacksonville Center
Sun 07:27:24 PM 30.8697 -87.0842 331° Northwest 164 189 8,000  Level Jacksonville Center
Sun 07:28:25 PM 30.9106 -87.1103 331° Northwest 165 190 8,000  Level Jacksonville Center
Sun 07:29:16 PM 30.9478 -87.1264 340° North 184 212 8,000  Level Jacksonville Center
Sun 07:30:16 PM 30.9886 -87.1525 331° Northwest 178 205 8,000  Level Jacksonville Center
Sun 07:31:16 PM 31.0294 -87.1786 331° Northwest 165 190 8,000  Level Jacksonville Center
Sun 07:32:15 PM 31.0683 -87.2022 333° Northwest 160 184 8,000  Level Jacksonville Center
Sun 07:33:16 PM 31.1111 -87.2283 332° Northwest 160 184 8,000  Level Jacksonville Center
Sun 07:35:33 PM 31.1989 -87.2917 328° Northwest 162 186 8,000  Level Atlanta Center
Sun 07:36:33 PM 31.2378 -87.3197 328° Northwest 162 186 8,000  Level Atlanta Center
Sun 07:37:33 PM 31.2808 -87.3481 331° Northwest 167 192 8,000  Level Atlanta Center
Sun 07:38:33 PM 31.3239 -87.3764 331° Northwest 167 192 8,000  Level Atlanta Center
Sun 07:39:33 PM 31.3650 -87.4019 332° Northwest 167 192 8,000  Level Atlanta Center
Sun 07:40:33 PM 31.4039 -87.4303 328° Northwest 167 192 8,000 50 Level Atlanta Center
Sun 07:41:33 PM 31.4425 -87.4586 328° Northwest 167 192 8,100 50 Climbing Atlanta Center
Sun 07:42:33 PM 31.4836 -87.4867 330° Northwest 167 192 8,100  Level Atlanta Center
Sun 07:43:33 PM 31.5244 -87.5153 329° Northwest 167 192 8,100  Level Atlanta Center
Sun 07:44:33 PM 31.5656 -87.5436 330° Northwest 167 192 8,100  Level Atlanta Center
Sun 07:45:33 PM 31.6064 -87.5719 329° Northwest 167 192 8,100  Level Atlanta Center
Sun 07:46:33 PM 31.6472 -87.6003 329° Northwest 167 192 8,100  Level Atlanta Center
Sun 07:47:33 PM 31.6883 -87.6264 332° Northwest 167 192 8,100  Level Atlanta Center
Sun 07:48:33 PM 31.7292 -87.6572 327° Northwest 167 192 8,100  Level Atlanta Center
Sun 07:49:33 PM 31.7722 -87.6858 331° Northwest 167 192 8,100  Level Atlanta Center
Sun 07:50:33 PM 31.8108 -87.7144 328° Northwest 167 192 8,100  Level Atlanta Center
Sun 07:51:33 PM 31.8539 -87.7431 331° Northwest 162 186 8,100  Level Atlanta Center
Sun 07:52:33 PM 31.8947 -87.7692 332° Northwest 167 192 8,100  Level Atlanta Center
Sun 07:53:33 PM 31.9358 -87.7978 329° Northwest 167 192 8,100  Level Atlanta Center
Sun 07:54:33 PM 31.9767 -87.8239 332° Northwest 167 192 8,100  Level Atlanta Center
Sun 07:55:33 PM 32.0156 -87.8500 330° Northwest 162 186 8,100  Level Atlanta Center
Sun 07:56:33 PM 32.0564 -87.8789 329° Northwest 162 186 8,100 -81 Level Atlanta Center
Sun 07:58:00 PM 32.1099 -87.9169 329° Northwest  Level FlightAware Approximate
Sun 08:05:00 PM 32.3686 -88.1004 329° Northwest  Level FlightAware Approximate
Sun 08:06:00 PM 32.4056 -88.1266 329° Northwest  Level FlightAware Approximate
Sun 08:07:00 PM 32.4426 -88.1528 329° Northwest  Level FlightAware Approximate
Sun 08:08:00 PM 32.4796 -88.1790 329° Northwest  Level FlightAware Approximate
Sun 08:09:00 PM 32.5184 -88.2059 330° Northwest  Level FlightAware Approximate
Sun 08:10:00 PM 32.5571 -88.2328 330° Northwest  Level FlightAware Approximate
Sun 08:11:00 PM 32.5959 -88.2598 330° Northwest  Level FlightAware Approximate
Sun 08:12:00 PM 32.6347 -88.2868 330° Northwest  Level FlightAware Approximate
Sun 08:13:00 PM 32.6734 -88.3138 330° Northwest  Level FlightAware Approximate
Sun 08:14:00 PM 32.7122 -88.3408 330° Northwest  Level FlightAware Approximate
Sun 08:15:00 PM 32.7509 -88.3678 330° Northwest  Level FlightAware Approximate
Sun 08:16:00 PM 32.7897 -88.3949 330° Northwest  Level FlightAware Approximate
Sun 08:17:00 PM 32.8284 -88.4220 330° Northwest  Level FlightAware Approximate
Sun 08:18:00 PM 32.8672 -88.4491 330° Northwest  Level FlightAware Approximate
Sun 08:19:00 PM 32.9059 -88.4763 330° Northwest  Level FlightAware Approximate
Sun 08:19:03 PM 32.9694 -88.5200 329° Northwest 158 182 6,200  Level Memphis Center
Sun 08:20:00 PM 32.9446 -88.5034 330° Northwest  Level FlightAware Approximate
Sun 08:20:03 PM 33.0031 -88.5464 327° Northwest 164 189 6,100  Level Memphis Center
Sun 08:21:00 PM 32.9833 -88.5306 329° Northwest  Level FlightAware Approximate
Sun 08:22:00 PM 33.0220 -88.5579 329° Northwest  Level FlightAware Approximate
Sun 08:22:27 PM 33.0836 -88.6192 323° Northwest 154 177 6,100  Level Memphis Center
Sun 08:23:00 PM 33.0608 -88.5851 329° Northwest  Level FlightAware Approximate
Sun 08:23:27 PM 33.1131 -88.6533 316° Northwest 149 171 6,000  Level Memphis Center
Sun 08:24:00 PM 33.0995 -88.6124 329° Northwest  Level FlightAware Approximate
Sun 08:24:27 PM 33.1511 -88.6800 330° Northwest 144 166 6,000  Level Memphis Center
Sun 08:25:27 PM 33.1850 -88.7139 320° Northwest 155 178 6,000  Level Memphis Center
Sun 08:26:27 PM 33.2167 -88.7433 322° Northwest 161 185 6,000 50 Level Memphis Center
Sun 08:27:27 PM 33.2547 -88.7722 328° Northwest 161 185 6,100 50 Climbing Memphis Center
Sun 08:28:27 PM 33.2883 -88.7967 329° Northwest 161 185 6,100 -50 Level Memphis Center
Sun 08:29:27 PM 33.3261 -88.8208 332° Northwest 155 178 6,000  Descending Memphis Center
Sun 08:30:27 PM 33.3642 -88.8450 332° Northwest 149 171 6,100 50 Climbing Memphis Center
Sun 08:31:27 PM 33.4061 -88.8667 337° Northwest 155 178 6,100  Level Memphis Center
Sun 08:32:27 PM 33.4439 -88.8908 332° Northwest 155 178 6,100 -50 Level Memphis Center
Sun 08:33:27 PM 33.4797 -88.9153 330° Northwest 155 178 6,000 -50 Descending Memphis Center
Sun 08:34:27 PM 33.5197 -88.9394 333° Northwest 160 184 6,000 50 Level Memphis Center
Sun 08:35:27 PM 33.5556 -88.9664 328° Northwest 160 184 6,100 50 Climbing Memphis Center
Sun 08:36:27 PM 33.5953 -88.9931 331° Northwest 160 184 6,100 -50 Level Memphis Center
Sun 08:37:27 PM 33.6333 -89.0200 329° Northwest 160 184 6,000  Descending Memphis Center
Sun 08:38:27 PM 33.6711 -89.0492 327° Northwest 160 184 6,100 50 Climbing Memphis Center
Sun 08:39:27 PM 33.7089 -89.0736 332° Northwest 160 184 6,100 -50 Level Memphis Center
Sun 08:40:27 PM 33.7511 -89.1031 330° Northwest 160 184 6,000  Descending Memphis Center
Sun 08:41:27 PM 33.7867 -89.1200 338° Northwest 160 184 6,100 -50 Climbing Memphis Center
Sun 08:42:27 PM 33.8244 -89.1469 329° Northwest 155 178 5,900 -300 Descending Memphis Center
Sun 08:43:27 PM 33.8622 -89.1739 329° Northwest 161 185 5,500 -350 Descending Memphis Center
Sun 08:44:27 PM 33.9044 -89.2033 330° Northwest 167 192 5,200 -400 Descending Memphis Center
Sun 08:45:27 PM 33.9442 -89.2331 328° Northwest 167 192 4,700 -450 Descending Memphis Center
Sun 08:46:27 PM 33.9819 -89.2600 329° Northwest 167 192 4,300 -400 Descending Memphis Center
Sun 08:47:27 PM 34.0283 -89.2869 334° Northwest 172 198 3,900 -450 Descending Memphis Center
Sun 08:48:27 PM 34.0703 -89.3167 330° Northwest 172 198 3,400 -450 Descending Memphis Center
Sun 08:49:27 PM 34.1142 -89.3461 331° Northwest 172 198 3,000 -300 Descending Memphis Center
Sun 08:50:27 PM 34.1564 -89.3758 330° Northwest 172 198 2,800 -100 Descending Memphis Center
Sun 08:51:27 PM 34.1961 -89.4053 328° Northwest 177 204 2,800  Level Memphis Center

Login

Don't have an account? Register now (free) for customized features, flight alerts, and more!